Time;durP1;ratioP1;P1;durP2;ratioP2;P2;SDS_P1;SDS_P2;PMS_P1;PMS_P2;Temp;Humidity;BMP_temperature;BMP_pressure;BME280_temperature;BME280_humidity;BME280_pressure;Samples;Min_cycle;Max_cycle;Signal;HPM_P1;HPM_P2
2023/12/01 00:00:16;;;;;;;0.70;0.70;;;;;;;-0.14;100.00;97850.69;5098625;27;20116;-60
2023/12/01 00:02:43;;;;;;;0.73;0.73;;;;;;;-0.19;100.00;97854.97;5094616;28;20044;-59
2023/12/01 00:05:11;;;;;;;0.60;0.60;;;;;;;-0.23;100.00;97855.38;5093132;28;20041;-59
2023/12/01 00:07:38;;;;;;;0.70;0.70;;;;;;;-0.09;100.00;97866.69;5092378;28;20144;-59
2023/12/01 00:10:10;;;;;;;0.70;0.70;;;;;;;-0.22;100.00;97862.25;5094737;28;20051;-59
2023/12/01 00:12:37;;;;;;;0.80;0.80;;;;;;;-0.29;100.00;97858.84;5100066;27;20115;-59
2023/12/01 00:15:07;;;;;;;0.80;0.80;;;;;;;-0.27;100.00;97862.09;5103309;27;20112;-59
2023/12/01 00:17:34;;;;;;;0.75;0.75;;;;;;;-0.32;100.00;97846.09;5088839;28;20055;-59
2023/12/01 00:20:04;;;;;;;0.60;0.60;;;;;;;-0.33;100.00;97857.63;5099320;27;20118;-59
2023/12/01 00:22:32;;;;;;;0.70;0.70;;;;;;;-0.40;100.00;97851.59;5095858;28;20444;-59
2023/12/01 00:25:01;;;;;;;0.60;0.60;;;;;;;-0.53;100.00;97862.13;5087285;28;20124;-59
2023/12/01 00:27:30;;;;;;;0.65;0.65;;;;;;;-0.42;100.00;97856.25;5091445;28;20051;-59
2023/12/01 00:29:57;;;;;;;0.70;0.70;;;;;;;-0.48;100.00;97863.13;5091929;28;20043;-59
2023/12/01 00:32:24;;;;;;;0.60;0.60;;;;;;;-0.55;100.00;97864.13;5095867;28;20040;-59
2023/12/01 00:34:52;;;;;;;0.63;0.63;;;;;;;-0.52;100.00;97856.66;5090399;28;20113;-59
2023/12/01 00:37:19;;;;;;;0.60;0.60;;;;;;;-0.53;100.00;97859.47;5095659;28;20043;-59
2023/12/01 00:39:46;;;;;;;0.80;0.80;;;;;;;-0.53;100.00;97854.22;5098410;28;20044;-59
2023/12/01 00:42:14;;;;;;;0.60;0.60;;;;;;;-0.59;100.00;97850.59;5088356;28;20044;-59
2023/12/01 00:44:45;;;;;;;0.70;0.70;;;;;;;-0.63;100.00;97854.63;5091399;28;20835;-59
2023/12/01 00:47:12;;;;;;;0.80;0.80;;;;;;;-0.70;100.00;97859.91;5098237;28;20156;-59
2023/12/01 00:49:39;;;;;;;0.60;0.60;;;;;;;-0.72;100.00;97866.41;5093271;28;20040;-59
2023/12/01 00:52:06;;;;;;;0.68;0.68;;;;;;;-0.78;100.00;97873.25;5091902;28;20043;-59
2023/12/01 00:54:36;;;;;;;0.80;0.80;;;;;;;-0.85;100.00;97867.19;5091196;28;20492;-60
2023/12/01 00:57:03;;;;;;;0.70;0.70;;;;;;;-0.89;100.00;97864.16;5084469;28;20071;-59
2023/12/01 00:59:31;;;;;;;0.60;0.60;;;;;;;-0.96;100.00;97867.81;5095650;28;20835;-60
2023/12/01 01:02:02;;;;;;;0.60;0.60;;;;;;;-0.91;100.00;97868.00;5095135;28;20047;-59
2023/12/01 01:04:29;;;;;;;0.60;0.60;;;;;;;-0.86;100.00;97868.22;5095295;27;20146;-59
2023/12/01 01:06:57;;;;;;;0.70;0.70;;;;;;;-0.80;100.00;97867.41;5095920;28;20044;-59
2023/12/01 01:09:24;;;;;;;0.60;0.60;;;;;;;-0.83;100.00;97867.78;5088835;28;20048;-60
2023/12/01 01:11:51;;;;;;;0.70;0.70;;;;;;;-0.81;100.00;97875.50;5101866;27;20139;-60
2023/12/01 01:14:19;;;;;;;0.70;0.70;;;;;;;-0.75;100.00;97866.78;5098003;28;20047;-60
2023/12/01 01:16:46;;;;;;;0.80;0.80;;;;;;;-0.77;100.00;97871.47;5092923;28;20693;-60
2023/12/01 01:19:15;;;;;;;0.80;0.80;;;;;;;-0.68;100.00;97863.13;5097002;27;20075;-61
2023/12/01 01:21:42;;;;;;;0.68;0.68;;;;;;;-0.71;100.00;97868.81;5095680;27;20051;-59
2023/12/01 01:24:09;;;;;;;0.70;0.70;;;;;;;-0.75;100.00;97866.78;5094001;27;20043;-60
2023/12/01 01:26:36;;;;;;;0.80;0.80;;;;;;;-0.76;100.00;97873.06;5097483;27;20142;-59
2023/12/01 01:29:03;;;;;;;0.75;0.75;;;;;;;-0.75;100.00;97872.88;5099686;27;20040;-60
2023/12/01 01:31:31;;;;;;;0.70;0.70;;;;;;;-0.74;100.00;97879.75;5095323;28;20054;-59
2023/12/01 01:33:58;;;;;;;0.80;0.80;;;;;;;-0.72;100.00;97885.63;5095643;27;20122;-60
2023/12/01 01:36:28;;;;;;;0.80;0.80;;;;;;;-0.62;100.00;97892.28;5097737;27;20039;-59
2023/12/01 01:38:55;;;;;;;0.65;0.65;;;;;;;-0.73;100.00;97889.25;5094367;28;20769;-59
2023/12/01 01:41:22;;;;;;;0.80;0.80;;;;;;;-0.72;100.00;97883.00;5099392;27;20046;-59
2023/12/01 01:43:49;;;;;;;0.73;0.73;;;;;;;-0.68;100.00;97889.44;5097383;27;20115;-60
2023/12/01 01:46:17;;;;;;;0.70;0.70;;;;;;;-0.78;100.00;97894.31;5090948;28;20043;-61
2023/12/01 01:48:44;;;;;;;0.60;0.60;;;;;;;-0.79;100.00;97887.44;5105726;27;20044;-60
2023/12/01 01:51:12;;;;;;;0.70;0.70;;;;;;;-0.76;100.00;97896.75;5098253;27;20047;-59
2023/12/01 01:53:41;;;;;;;0.70;0.70;;;;;;;-0.61;100.00;97891.28;5091817;27;20063;-60
2023/12/01 01:56:09;;;;;;;0.70;0.70;;;;;;;-0.66;100.00;97891.88;5089676;28;20036;-60
2023/12/01 01:58:36;;;;;;;0.68;0.68;;;;;;;-0.68;100.00;97893.91;5108032;27;20040;-60
2023/12/01 02:01:07;;;;;;;0.90;0.90;;;;;;;-0.74;100.00;97900.78;5094741;28;20055;-60
2023/12/01 02:03:34;;;;;;;0.70;0.70;;;;;;;-0.67;100.00;97900.81;5095939;27;20058;-60
2023/12/01 02:06:07;;;;;;;0.77;0.77;;;;;;;-0.70;100.00;97896.75;5094123;28;20040;-59
2023/12/01 02:08:35;;;;;;;0.70;0.70;;;;;;;-0.70;100.00;97901.19;5095743;28;20059;-60
2023/12/01 02:11:07;;;;;;;0.63;0.63;;;;;;;-0.75;100.00;97898.34;5089943;27;20055;-60
2023/12/01 02:13:34;;;;;;;0.80;0.80;;;;;;;-0.71;100.00;97903.00;5095185;27;20489;-60
2023/12/01 02:16:01;;;;;;;0.95;0.95;;;;;;;-0.66;100.00;97903.22;5094405;28;20159;-60
2023/12/01 02:18:29;;;;;;;0.80;0.80;;;;;;;-0.72;100.00;97901.41;5094694;28;20044;-60
2023/12/01 02:20:57;;;;;;;0.70;0.70;;;;;;;-0.60;100.00;97900.78;5094549;28;20044;-60
2023/12/01 02:23:26;;;;;;;0.68;0.68;;;;;;;-0.59;100.00;97903.22;5095787;28;20043;-59
2023/12/01 02:25:53;;;;;;;0.77;0.77;;;;;;;-0.58;100.00;97907.47;5094611;28;20072;-59
2023/12/01 02:28:20;;;;;;;0.70;0.70;;;;;;;-0.60;100.00;97906.88;5095486;28;20040;-59
2023/12/01 02:30:49;;;;;;;0.68;0.68;;;;;;;-0.72;100.00;97909.31;5097607;28;20044;-60
2023/12/01 02:33:16;;;;;;;0.70;0.70;;;;;;;-0.77;100.00;97909.09;5098295;28;20077;-58
2023/12/01 02:36:03;;;;;;;0.75;0.75;;;;;;;-0.79;100.00;97916.38;5096328;28;20078;-60
2023/12/01 02:38:34;;;;;;;0.70;0.70;;;;;;;-0.95;100.00;97917.59;5096506;28;20908;-59
2023/12/01 02:41:06;;;;;;;0.70;0.70;;;;;;;-0.88;100.00;97920.22;5092455;28;20048;-60
2023/12/01 02:43:33;;;;;;;0.70;0.70;;;;;;;-0.92;100.00;97934.78;5098433;28;20064;-59
2023/12/01 02:46:00;;;;;;;0.82;0.82;;;;;;;-0.95;100.00;97936.00;5089575;28;20080;-59
2023/12/01 02:48:28;;;;;;;0.85;0.85;;;;;;;-0.74;100.00;97936.84;5092968;28;20043;-59
2023/12/01 02:50:55;;;;;;;0.70;0.70;;;;;;;-0.75;100.00;97938.66;5092380;28;20481;-59
2023/12/01 02:53:23;;;;;;;0.80;0.80;;;;;;;-0.87;100.00;97940.25;5095547;28;20139;-59
2023/12/01 02:55:51;;;;;;;0.80;0.80;;;;;;;-0.88;100.00;97928.91;5095115;28;20610;-60
2023/12/01 02:58:19;;;;;;;0.60;0.60;;;;;;;-0.82;100.00;97940.47;5090426;28;20059;-59
2023/12/01 03:00:46;;;;;;;0.75;0.75;;;;;;;-0.76;100.00;97934.38;5094544;28;20079;-59
2023/12/01 03:03:14;;;;;;;0.80;0.80;;;;;;;-0.87;100.00;97942.88;5106801;27;20868;-59
2023/12/01 03:05:41;;;;;;;0.88;0.88;;;;;;;-0.85;100.00;97932.94;5096173;28;20054;-59
2023/12/01 03:08:27;;;;;;;0.75;0.75;;;;;;;-0.88;100.00;97933.34;5110335;27;20536;-59
2023/12/01 03:10:55;;;;;;;0.60;0.60;;;;;;;-0.80;100.00;97927.94;5101742;27;20047;-59
2023/12/01 03:13:22;;;;;;;0.73;0.73;;;;;;;-0.62;100.00;97926.50;5099996;27;20043;-60
2023/12/01 03:15:49;;;;;;;0.70;0.70;;;;;;;-0.69;100.00;97932.56;5090380;28;20044;-59
2023/12/01 03:18:16;;;;;;;0.70;0.70;;;;;;;-0.77;100.00;97932.78;5097172;28;20128;-59
2023/12/01 03:20:43;;;;;;;0.60;0.60;;;;;;;-0.79;100.00;97934.78;5094789;28;20485;-60
2023/12/01 03:23:10;;;;;;;0.70;0.70;;;;;;;-0.84;100.00;97929.31;5099000;27;20066;-59
2023/12/01 03:25:37;;;;;;;0.60;0.60;;;;;;;-0.81;100.00;97921.03;5096963;27;20044;-59
2023/12/01 03:28:09;;;;;;;0.70;0.70;;;;;;;-0.62;100.00;97918.59;5095927;28;20845;-60
2023/12/01 03:30:36;;;;;;;0.80;0.80;;;;;;;-0.68;100.00;97918.41;5095287;28;20047;-59
2023/12/01 03:33:04;;;;;;;0.70;0.70;;;;;;;-0.69;100.00;97927.31;5094475;27;20050;-59
2023/12/01 03:35:31;;;;;;;0.60;0.60;;;;;;;-0.63;100.00;97924.88;5099560;27;20745;-60
2023/12/01 03:37:58;;;;;;;0.50;0.50;;;;;;;-0.78;100.00;97932.97;5102409;27;20120;-59
2023/12/01 03:40:26;;;;;;;0.57;0.57;;;;;;;-0.71;100.00;97920.63;5100318;28;20131;-59
2023/12/01 03:42:53;;;;;;;0.80;0.80;;;;;;;-0.48;100.00;97920.22;5094147;27;20297;-59
2023/12/01 03:45:25;;;;;;;0.73;0.73;;;;;;;-0.79;100.00;97924.28;5097420;27;20116;-59
2023/12/01 03:47:52;;;;;;;0.70;0.70;;;;;;;-0.90;100.00;97933.59;5093061;28;20060;-59
2023/12/01 03:50:20;;;;;;;0.80;0.80;;;;;;;-0.90;100.00;97935.38;5093738;27;20239;-59
2023/12/01 03:52:48;;;;;;;0.75;0.75;;;;;;;-0.92;100.00;97925.06;5115930;27;20128;-59
2023/12/01 03:55:14;;;;;;;0.73;0.73;;;;;;;-0.83;100.00;97938.03;5094591;28;20101;-59
2023/12/01 03:57:42;;;;;;;0.60;0.60;;;;;;;-0.89;100.00;97939.66;5096269;27;20059;-59
2023/12/01 04:00:13;;;;;;;0.70;0.70;;;;;;;-0.98;100.00;97938.22;5093465;27;20052;-59
2023/12/01 04:02:41;;;;;;;;;;;;;;;-0.95;100.00;97943.06;5095463;28;20039;-59
2023/12/01 04:05:09;;;;;;;0.80;0.80;;;;;;;-0.97;100.00;97942.47;5097771;27;19924;-59
2023/12/01 04:07:38;;;;;;;0.70;0.70;;;;;;;-1.01;100.00;97943.88;5096688;28;20154;-59
2023/12/01 04:10:10;;;;;;;0.80;0.80;;;;;;;-0.92;100.00;97955.84;5088691;27;20143;-59
2023/12/01 04:12:40;;;;;;;0.70;0.70;;;;;;;-1.01;100.00;97957.03;5096603;28;20590;-59
2023/12/01 04:15:08;;;;;;;0.77;0.77;;;;;;;-1.09;100.00;97952.75;5088744;27;20517;-59
2023/12/01 04:17:35;;;;;;;0.70;0.70;;;;;;;-1.14;100.00;97955.97;5095558;28;20054;-60
2023/12/01 04:20:20;;;;;;;0.80;0.80;;;;;;;-0.97;100.00;97958.25;5111596;27;20040;-60
2023/12/01 04:22:49;;;;;;;0.90;0.90;;;;;;;-1.05;100.00;97961.03;5091422;27;20044;-60
2023/12/01 04:25:17;;;;;;;0.70;0.70;;;;;;;-1.06;100.00;97957.63;5093553;27;21309;-59
2023/12/01 04:27:45;;;;;;;0.65;0.65;;;;;;;-0.97;100.00;97963.50;5094408;28;20105;-59
2023/12/01 04:30:15;;;;;;;0.70;0.70;;;;;;;-1.05;100.00;97967.09;5091606;28;20040;-59
2023/12/01 04:32:43;;;;;;;0.73;0.73;;;;;;;-1.05;100.00;97961.84;5090991;27;20082;-59
2023/12/01 04:35:12;;;;;;;0.70;0.70;;;;;;;-1.09;100.00;97966.72;5094252;27;20040;-59
2023/12/01 04:37:40;;;;;;;0.75;0.75;;;;;;;-1.07;100.00;97969.16;5097395;27;20073;-59
2023/12/01 04:40:14;;;;;;;0.80;0.80;;;;;;;-1.08;100.00;97968.31;5098434;27;20048;-59
2023/12/01 04:42:45;;;;;;;0.60;0.60;;;;;;;-1.08;100.00;97957.00;5099268;28;20039;-60
2023/12/01 04:45:12;;;;;;;;;;;;;;;-1.15;100.00;97962.25;5096974;28;20101;-59
2023/12/01 04:47:41;;;;;;;0.68;0.68;;;;;;;-1.08;100.00;97964.88;5099459;28;20078;-60
2023/12/01 04:50:14;;;;;;;1.00;1.00;;;;;;;-1.23;100.00;97959.78;5095483;27;20136;-59
2023/12/01 04:52:41;;;;;;;0.70;0.70;;;;;;;-1.27;100.00;97958.56;5098840;27;20039;-59
2023/12/01 04:55:09;;;;;;;0.68;0.68;;;;;;;-1.23;100.00;97965.03;5097793;27;20224;-59
2023/12/01 04:57:36;;;;;;;0.80;0.80;;;;;;;-1.25;100.00;97967.06;5098376;27;20055;-59
2023/12/01 05:00:18;;;;;;;0.73;0.73;;;;;;;-1.22;100.00;97971.94;5101716;27;20044;-59
2023/12/01 05:02:47;;;;;;;0.70;0.70;;;;;;;-1.21;100.00;97967.50;5093876;28;21154;-59
2023/12/01 05:05:16;;;;;;;0.82;0.82;;;;;;;-1.01;100.00;97972.81;5097307;27;20043;-59
2023/12/01 05:07:43;;;;;;;0.70;0.70;;;;;;;-1.25;100.00;97977.56;5098797;27;20066;-59
2023/12/01 05:10:14;;;;;;;0.80;0.80;;;;;;;-1.22;100.00;97986.88;5094045;27;20050;-59
2023/12/01 05:12:43;;;;;;;0.73;0.73;;;;;;;-1.21;100.00;97983.25;5098550;27;20044;-59
2023/12/01 05:15:15;;;;;;;0.80;0.80;;;;;;;-1.13;100.00;97990.97;5094884;27;20042;-59
2023/12/01 05:17:44;;;;;;;0.80;0.80;;;;;;;-1.18;100.00;97991.56;5098343;28;20693;-59
2023/12/01 05:20:15;;;;;;;0.80;0.80;;;;;;;-1.26;100.00;97993.56;5097364;27;20044;-59
2023/12/01 05:22:45;;;;;;;0.70;0.70;;;;;;;-1.16;100.00;98000.06;5093920;28;20043;-59
2023/12/01 05:25:13;;;;;;;0.83;0.83;;;;;;;-1.29;100.00;98007.91;5095143;28;20402;-59
2023/12/01 05:27:43;;;;;;;0.77;0.77;;;;;;;-1.25;100.00;98008.31;5089774;27;20143;-58
2023/12/01 05:30:12;;;;;;;0.75;0.75;;;;;;;-1.25;100.00;98010.94;5094038;27;20052;-58
2023/12/01 05:32:40;;;;;;;0.70;0.70;;;;;;;-1.17;100.00;98011.59;5093597;27;20083;-59
2023/12/01 05:35:11;;;;;;;0.88;0.88;;;;;;;-1.13;100.00;98020.69;5095565;27;20055;-57
2023/12/01 05:37:40;;;;;;;0.70;0.70;;;;;;;-1.19;100.00;98016.25;5093012;27;20036;-59
2023/12/01 05:40:14;;;;;;;0.93;0.93;;;;;;;-1.21;100.00;98020.88;5099974;27;20050;-59
2023/12/01 05:42:42;;;;;;;0.80;0.80;;;;;;;-1.23;100.00;98022.06;5091005;28;20154;-59
2023/12/01 05:45:11;;;;;;;0.73;0.73;;;;;;;-1.26;100.00;98027.72;5092158;27;20142;-59
2023/12/01 05:47:43;;;;;;;0.55;0.55;;;;;;;-1.19;100.00;98037.28;5090727;28;20043;-58
2023/12/01 05:50:13;;;;;;;0.85;0.85;;;;;;;-1.09;100.00;98034.28;5092736;28;20054;-59
2023/12/01 05:52:42;;;;;;;0.88;0.88;;;;;;;-1.16;100.00;98034.25;5091570;28;20047;-59
2023/12/01 05:55:15;;;;;;;0.85;0.85;;;;;;;-1.30;100.00;98037.81;5092121;27;20218;-58
2023/12/01 05:57:46;;;;;;;0.80;0.80;;;;;;;-1.22;100.00;98042.94;5095234;27;20120;-58
2023/12/01 06:00:17;;;;;;;0.77;0.77;;;;;;;-1.29;100.00;98044.72;5088599;28;20052;-58
2023/12/01 06:02:53;;;;;;;0.80;0.80;;;;;;;-1.23;100.00;98045.75;5096267;27;20047;-59
2023/12/01 06:05:22;;;;;;;;;;;;;;;-1.26;100.00;98048.78;5092545;27;20094;-59
2023/12/01 06:07:54;;;;;;;0.90;0.90;;;;;;;-1.27;100.00;98060.28;5107099;27;19997;-59
2023/12/01 06:10:23;;;;;;;0.70;0.70;;;;;;;-1.30;100.00;98048.31;5093179;28;20055;-59
2023/12/01 06:12:50;;;;;;;0.75;0.75;;;;;;;-1.25;100.00;98061.69;5089702;27;20035;-60
2023/12/01 06:15:19;;;;;;;0.75;0.75;;;;;;;-1.31;100.00;98050.16;5095303;27;20035;-61
2023/12/01 06:17:56;;;;;;;0.80;0.80;;;;;;;-1.24;100.00;98059.91;5093460;27;20311;-60
2023/12/01 06:20:23;;;;;;;0.85;0.85;;;;;;;-1.18;100.00;98062.53;5096606;28;20040;-60
2023/12/01 06:22:51;;;;;;;0.90;0.90;;;;;;;-1.28;100.00;98054.22;5089881;28;20844;-60
2023/12/01 06:25:19;;;;;;;0.70;0.70;;;;;;;-1.11;100.00;98052.06;5094334;28;20143;-62
2023/12/01 06:27:47;;;;;;;0.70;0.70;;;;;;;-1.12;100.00;98051.25;5094422;28;20047;-58
2023/12/01 06:30:15;;;;;;;0.80;0.80;;;;;;;-1.25;100.00;98045.94;5099077;28;20557;-59
2023/12/01 06:32:43;;;;;;;0.80;0.80;;;;;;;-1.21;100.00;98046.38;5089588;28;22013;-58
2023/12/01 06:35:10;;;;;;;0.80;0.80;;;;;;;-1.17;100.00;98051.03;5087885;28;20035;-59
2023/12/01 06:37:38;;;;;;;0.75;0.75;;;;;;;-1.23;100.00;98054.44;5088416;28;20108;-59
2023/12/01 06:40:11;;;;;;;0.70;0.70;;;;;;;-1.25;100.00;98056.44;5094110;28;20130;-59
2023/12/01 06:42:41;;;;;;;0.82;0.82;;;;;;;-1.26;100.00;98054.84;5100926;28;20036;-59
2023/12/01 06:45:11;;;;;;;0.90;0.90;;;;;;;-1.23;100.00;98054.44;5096442;28;20032;-59
2023/12/01 06:47:38;;;;;;;0.70;0.70;;;;;;;-1.21;100.00;98062.13;5092358;27;20049;-59
2023/12/01 06:50:07;;;;;;;0.80;0.80;;;;;;;-1.17;100.00;98069.44;5098706;28;20042;-59
2023/12/01 06:52:34;;;;;;;1.00;1.00;;;;;;;-1.39;100.00;98073.97;5109926;27;20052;-59
2023/12/01 06:55:01;;;;;;;0.93;0.93;;;;;;;-1.31;100.00;98078.28;5099532;28;20729;-59
2023/12/01 06:57:28;;;;;;;0.88;0.88;;;;;;;-1.39;100.00;98071.34;5090650;28;20397;-59
2023/12/01 06:59:55;;;;;;;0.95;0.95;;;;;;;-1.17;100.00;98093.13;5095539;28;20089;-59
2023/12/01 07:02:26;;;;;;;0.90;0.90;;;;;;;-1.11;100.00;98094.13;5095950;28;20105;-59
2023/12/01 07:04:55;;;;;;;0.88;0.88;;;;;;;-1.15;100.00;98099.00;5090873;28;20113;-59
2023/12/01 07:07:23;;;;;;;0.80;0.80;;;;;;;-1.06;100.00;98093.56;5099068;28;20138;-60
2023/12/01 07:09:51;;;;;;;0.90;0.90;;;;;;;-1.09;100.00;98090.31;5095893;28;20478;-60
2023/12/01 07:12:18;;;;;;;0.90;0.90;;;;;;;-0.99;100.00;98097.84;5094153;28;20048;-60
2023/12/01 07:14:46;;;;;;;0.82;0.82;;;;;;;-0.93;100.00;98096.25;5093334;28;20029;-59
2023/12/01 07:17:14;;;;;;;0.70;0.70;;;;;;;-1.24;100.00;98099.34;5097540;28;20072;-59
2023/12/01 07:19:46;;;;;;;0.77;0.77;;;;;;;-1.24;100.00;98094.09;5096592;28;20066;-59
2023/12/01 07:22:14;;;;;;;0.70;0.70;;;;;;;-1.01;100.00;98093.78;5092951;28;20120;-59
2023/12/01 07:24:41;;;;;;;0.82;0.82;;;;;;;-1.06;100.00;98102.25;5100545;28;20192;-59
2023/12/01 07:27:11;;;;;;;0.80;0.80;;;;;;;-1.03;100.00;98101.84;5098034;28;20092;-59
2023/12/01 07:29:38;;;;;;;0.77;0.77;;;;;;;-0.98;100.00;98101.28;5096868;28;20059;-59
2023/12/01 07:32:08;;;;;;;0.90;0.90;;;;;;;-1.22;100.00;98103.41;5106338;27;20807;-60
2023/12/01 07:34:37;;;;;;;0.80;0.80;;;;;;;-0.89;100.00;98102.75;5100521;28;20127;-58
2023/12/01 07:37:10;;;;;;;0.73;0.73;;;;;;;-1.03;100.00;98095.78;5093972;28;20761;-58
2023/12/01 07:39:37;;;;;;;0.70;0.70;;;;;;;-1.32;100.00;98103.75;5100145;27;20032;-58
2023/12/01 07:42:07;;;;;;;0.70;0.70;;;;;;;-1.29;100.00;98107.81;5096194;28;20048;-58
2023/12/01 07:44:34;;;;;;;0.75;0.75;;;;;;;-1.15;100.00;98108.69;5092415;28;20067;-58
2023/12/01 07:47:07;;;;;;;0.77;0.77;;;;;;;-0.76;100.00;98108.03;5096866;28;20159;-58
2023/12/01 07:49:34;;;;;;;0.80;0.80;;;;;;;-1.11;100.00;98109.91;5098209;28;20048;-58
2023/12/01 07:52:06;;;;;;;0.90;0.90;;;;;;;-1.22;100.00;98113.09;5093208;27;20031;-58
2023/12/01 07:54:35;;;;;;;0.77;0.77;;;;;;;-1.29;100.00;98105.19;5097414;27;20048;-58
2023/12/01 07:57:02;;;;;;;0.82;0.82;;;;;;;-1.19;100.00;98102.19;5100326;27;20070;-58
2023/12/01 07:59:29;;;;;;;0.80;0.80;;;;;;;-1.10;100.00;98104.47;5095665;27;20677;-58
2023/12/01 08:01:56;;;;;;;0.70;0.70;;;;;;;-1.11;100.00;98108.09;5098247;27;20051;-58
2023/12/01 08:04:23;;;;;;;0.85;0.85;;;;;;;-1.19;100.00;98113.53;5096980;27;20135;-58
2023/12/01 08:06:51;;;;;;;0.82;0.82;;;;;;;-1.23;100.00;98114.91;5092981;27;20043;-58
2023/12/01 08:09:18;;;;;;;0.80;0.80;;;;;;;-1.13;100.00;98123.25;5091029;28;20051;-58
2023/12/01 08:11:47;;;;;;;0.90;0.90;;;;;;;-1.12;100.00;98122.25;5099071;27;20118;-58
2023/12/01 08:14:16;;;;;;;0.90;0.90;;;;;;;-1.11;100.00;98130.97;5093179;28;20606;-58
2023/12/01 08:16:43;;;;;;;0.63;0.63;;;;;;;-1.17;100.00;98127.28;5100843;27;20050;-58
2023/12/01 08:19:11;;;;;;;0.70;0.70;;;;;;;-1.20;100.00;98138.22;5098647;27;20497;-58
2023/12/01 08:21:38;;;;;;;0.80;0.80;;;;;;;-1.43;100.00;98135.81;5094536;27;20649;-58
2023/12/01 08:24:06;;;;;;;0.80;0.80;;;;;;;-1.08;100.00;98135.81;5097365;28;20556;-58
2023/12/01 08:26:33;;;;;;;0.80;0.80;;;;;;;-0.45;100.00;98130.41;5113617;27;20047;-58
2023/12/01 08:29:02;;;;;;;0.80;0.80;;;;;;;-0.61;100.00;98141.31;5095847;27;20130;-60
2023/12/01 08:31:30;;;;;;;0.80;0.80;;;;;;;-1.04;100.00;98142.34;5098214;28;20050;-58
2023/12/01 08:33:59;;;;;;;0.85;0.85;;;;;;;-1.21;100.00;98131.31;5090671;28;20265;-60
2023/12/01 08:36:26;;;;;;;0.70;0.70;;;;;;;-1.09;100.00;98136.84;5096515;28;20154;-60
2023/12/01 08:38:54;;;;;;;0.90;0.90;;;;;;;-1.25;100.00;98139.78;5098532;27;20071;-60
2023/12/01 08:41:21;;;;;;;0.68;0.68;;;;;;;-1.37;100.00;98147.41;5096763;28;20059;-58
2023/12/01 08:43:49;;;;;;;0.90;0.90;;;;;;;-1.34;100.00;98137.31;5092734;27;20040;-58
2023/12/01 08:46:17;;;;;;;0.88;0.88;;;;;;;-1.27;100.00;98137.34;5095984;27;20063;-58
2023/12/01 08:48:45;;;;;;;0.90;0.90;;;;;;;-1.17;100.00;98137.81;5085545;28;20035;-58
2023/12/01 08:51:13;;;;;;;0.80;0.80;;;;;;;-1.41;100.00;98136.44;5092768;27;20051;-58
2023/12/01 08:53:40;;;;;;;0.90;0.90;;;;;;;-1.29;100.00;98144.63;5097787;27;20109;-58
2023/12/01 08:56:09;;;;;;;0.90;0.90;;;;;;;-1.16;100.00;98142.06;5097751;27;20050;-58
2023/12/01 08:58:39;;;;;;;0.80;0.80;;;;;;;-1.21;100.00;98144.44;5087683;27;20040;-59
2023/12/01 09:01:06;;;;;;;0.82;0.82;;;;;;;-1.21;100.00;98154.97;5096149;28;20121;-58
2023/12/01 09:03:38;;;;;;;;;;;;;;;-1.12;100.00;98151.19;5098544;28;20054;-59
2023/12/01 09:06:08;;;;;;;0.70;0.70;;;;;;;-1.08;100.00;98162.13;5085865;28;19930;-58
2023/12/01 09:08:36;;;;;;;;;;;;;;;-1.05;100.00;98155.66;5092171;28;20990;-59
2023/12/01 09:11:04;;;;;;;0.80;0.80;;;;;;;-1.11;100.00;98157.25;5097852;28;19927;-59
2023/12/01 09:13:32;;;;;;;0.80;0.80;;;;;;;-1.01;100.00;98156.91;5096864;27;20070;-59
2023/12/01 09:16:00;;;;;;;0.77;0.77;;;;;;;-0.95;100.00;98158.75;5086223;28;20036;-59
2023/12/01 09:18:27;;;;;;;0.90;0.90;;;;;;;-0.93;100.00;98159.38;5096725;28;20054;-59
2023/12/01 09:20:55;;;;;;;0.80;0.80;;;;;;;-0.71;100.00;98171.41;5093859;27;20827;-59
2023/12/01 09:23:22;;;;;;;0.80;0.80;;;;;;;-0.82;100.00;98161.47;5091394;27;20135;-59
2023/12/01 09:25:49;;;;;;;0.90;0.90;;;;;;;-0.96;100.00;98165.84;5090789;27;20043;-59
2023/12/01 09:28:16;;;;;;;0.68;0.68;;;;;;;-0.84;100.00;98163.47;5091825;28;20502;-58
2023/12/01 09:30:43;;;;;;;0.75;0.75;;;;;;;-0.93;100.00;98162.00;5097662;27;20766;-59
2023/12/01 09:33:11;;;;;;;0.82;0.82;;;;;;;-0.96;100.00;98159.78;5110893;27;20074;-59
2023/12/01 09:35:38;;;;;;;0.90;0.90;;;;;;;-0.83;100.00;98159.03;5095020;28;20104;-59
2023/12/01 09:38:08;;;;;;;1.00;1.00;;;;;;;-0.83;100.00;98164.28;5091515;27;20565;-59
2023/12/01 09:40:42;;;;;;;0.90;0.90;;;;;;;-0.74;100.00;98163.13;5090982;28;20500;-59
2023/12/01 09:43:09;;;;;;;1.00;1.00;;;;;;;-0.50;100.00;98167.03;5103306;27;20443;-59
2023/12/01 09:45:38;;;;;;;0.70;0.70;;;;;;;-0.46;100.00;98160.38;5095298;27;20050;-59
2023/12/01 09:48:06;;;;;;;0.90;0.90;;;;;;;-0.71;100.00;98167.97;5105675;27;20070;-59
2023/12/01 09:50:33;;;;;;;0.80;0.80;;;;;;;-0.67;100.00;98164.75;5100458;27;20093;-58
2023/12/01 09:53:01;;;;;;;0.80;0.80;;;;;;;-0.66;100.00;98176.91;5089246;27;20143;-59
2023/12/01 09:55:29;;;;;;;0.95;0.95;;;;;;;-0.66;100.00;98179.53;5086528;28;20082;-59
2023/12/01 09:57:56;;;;;;;0.80;0.80;;;;;;;-0.74;100.00;98184.97;5090657;28;20071;-59
2023/12/01 10:00:24;;;;;;;0.70;0.70;;;;;;;-0.68;100.00;98183.38;5090475;27;20051;-59
2023/12/01 10:02:52;;;;;;;0.60;0.60;;;;;;;-0.79;100.00;98191.84;5091506;28;20853;-58
2023/12/01 10:05:20;;;;;;;0.70;0.70;;;;;;;-0.59;100.00;98184.03;5091429;28;20039;-59
2023/12/01 10:07:49;;;;;;;0.73;0.73;;;;;;;-0.65;100.00;98185.59;5090292;27;20550;-59
2023/12/01 10:10:20;;;;;;;0.80;0.80;;;;;;;-0.47;100.00;98185.09;5092720;27;20076;-59
2023/12/01 10:12:56;;;;;;;0.60;0.60;;;;;;;-0.57;100.00;98190.72;5096193;28;20031;-59
2023/12/01 10:15:24;;;;;;;0.70;0.70;;;;;;;-0.57;100.00;98195.19;5087741;28;20044;-58
2023/12/01 10:17:52;;;;;;;0.80;0.80;;;;;;;-0.57;100.00;98195.19;5093657;27;20131;-59
2023/12/01 10:20:21;;;;;;;0.80;0.80;;;;;;;-0.64;100.00;98199.59;5085898;28;20620;-59
2023/12/01 10:22:49;;;;;;;0.75;0.75;;;;;;;-0.54;100.00;98194.78;5090945;28;20047;-61
2023/12/01 10:25:17;;;;;;;0.70;0.70;;;;;;;-0.64;100.00;98199.59;5093929;28;20065;-59
2023/12/01 10:27:55;;;;;;;0.80;0.80;;;;;;;-0.57;100.00;98190.72;5088179;28;20317;-59
2023/12/01 10:30:23;;;;;;;0.70;0.70;;;;;;;-0.56;100.00;98175.75;5097635;28;20039;-59
2023/12/01 10:32:50;;;;;;;0.80;0.80;;;;;;;-0.55;100.00;98172.09;5092729;28;20071;-59
2023/12/01 10:35:17;;;;;;;0.77;0.77;;;;;;;-0.39;100.00;98170.94;5091919;28;20519;-58
2023/12/01 10:37:44;;;;;;;0.90;0.90;;;;;;;-0.50;100.00;98167.03;5095376;27;20040;-58
2023/12/01 10:40:13;;;;;;;0.70;0.70;;;;;;;-0.47;100.00;98164.03;5093774;28;20055;-59
2023/12/01 10:42:40;;;;;;;0.90;0.90;;;;;;;-0.51;100.00;98168.06;5097071;27;20036;-59
2023/12/01 10:45:12;;;;;;;0.70;0.70;;;;;;;-0.47;100.00;98166.66;5091502;28;20127;-59
2023/12/01 10:47:39;;;;;;;0.70;0.70;;;;;;;-0.41;100.00;98163.22;5094035;28;20100;-59
2023/12/01 10:50:07;;;;;;;0.90;0.90;;;;;;;-0.51;100.00;98165.44;5089730;28;20774;-59
2023/12/01 10:52:34;;;;;;;0.70;0.70;;;;;;;-0.44;100.00;98155.72;5101922;28;20118;-59
2023/12/01 10:55:02;;;;;;;0.80;0.80;;;;;;;-0.40;100.00;98137.72;5092874;28;20040;-59
2023/12/01 10:57:31;;;;;;;0.73;0.73;;;;;;;-0.42;100.00;98140.56;5089841;28;20048;-59
2023/12/01 11:00:01;;;;;;;0.88;0.88;;;;;;;-0.43;100.00;98152.09;5091467;28;20039;-59
2023/12/01 11:02:29;;;;;;;0.80;0.80;;;;;;;-0.60;100.00;98153.44;5090962;28;20044;-58
2023/12/01 11:04:56;;;;;;;0.82;0.82;;;;;;;-0.70;100.00;98154.63;5089359;28;20085;-58
2023/12/01 11:07:54;;;;;;;0.65;0.65;;;;;;;-0.66;100.00;98149.78;5091828;28;20043;-58
2023/12/01 11:10:28;;;;;;;0.80;0.80;;;;;;;-0.57;100.00;98148.63;5066764;28;20137;-59
2023/12/01 11:13:04;;;;;;;0.85;0.85;;;;;;;-0.56;100.00;98138.88;5088837;28;20135;-61
2023/12/01 11:15:33;;;;;;;0.80;0.80;;;;;;;-0.66;100.00;98145.31;5089596;28;20868;-60
2023/12/01 11:18:02;;;;;;;0.90;0.90;;;;;;;-0.66;100.00;98150.59;5094219;28;20039;-60
2023/12/01 11:20:33;;;;;;;0.90;0.90;;;;;;;-0.70;100.00;98153.81;5096465;28;20064;-60
2023/12/01 11:23:05;;;;;;;0.70;0.70;;;;;;;-0.70;100.00;98156.44;5099023;28;20511;-60
2023/12/01 11:25:42;;;;;;;0.80;0.80;;;;;;;-0.77;100.00;98148.53;5094808;28;20500;-60
2023/12/01 11:28:20;;;;;;;0.80;0.80;;;;;;;-0.71;100.00;98153.00;5094761;28;20535;-59
2023/12/01 11:31:00;;;;;;;0.90;0.90;;;;;;;-0.72;100.00;98155.84;5096671;27;20044;-60
2023/12/01 11:33:33;;;;;;;0.77;0.77;;;;;;;-0.64;100.00;98158.31;5102081;27;20928;-59